| time (UTC) | temp F | wind direction | speed MPH | gust MPH | rain 1hr in | rain 24hr in | rain mn in | humidity % | barometer mb |
| 20260508124632 | 40 | 194 | 1.0 | 2.0 | 0.00 | 0.00 | 0.00 | 94 | 4095.9 |
| 20260508124129 | 40 | 194 | 0.0 | 0.0 | 0.00 | 0.00 | 0.00 | 95 | 4095.9 |
| 20260508123628 | 40 | 194 | 1.0 | 1.0 | 0.00 | 0.00 | 0.00 | 95 | 4096.2 |
| 20260508123125 | 40 | 194 | 1.0 | 1.0 | 0.00 | 0.00 | 0.00 | 95 | 4095.9 |
| 20260508122621 | 40 | 194 | 1.0 | 1.0 | 0.00 | 0.00 | 0.00 | 96 | 4095.9 |
| 20260508122118 | 39 | 194 | 1.0 | 1.0 | 0.00 | 0.00 | 0.00 | 96 | 4095.9 |
| 20260508121617 | 39 | 194 | 1.0 | 1.0 | 0.00 | 0.00 | 0.00 | 95 | 4095.9 |
| 20260508121114 | 39 | 194 | 0.0 | 0.0 | 0.00 | 0.00 | 0.00 | 96 | 4095.9 |
| 20260508120611 | 39 | 194 | 0.0 | 0.0 | 0.00 | 0.00 | 0.00 | 96 | 4095.9 |
| 20260508120110 | 39 | 194 | 1.0 | 1.0 | 0.00 | 0.00 | 0.00 | 96 | 4095.9 |
| 20260508115607 | 38 | 194 | 1.0 | 1.0 | 0.00 | 0.00 | 0.00 | 98 | 4095.9 |
| 20260508115103 | 38 | 194 | 1.0 | 1.0 | 0.00 | 0.00 | 0.00 | 98 | 4095.9 |
| 20260508114601 | 38 | 216 | 0.0 | 1.0 | 0.00 | 0.00 | 0.00 | 99 | 4095.9 |
| 20260508114056 | 37 | 217 | 0.0 | 0.0 | 0.00 | 0.00 | 0.00 | 99 | 4095.9 |
| 20260508113554 | 37 | 217 | 0.0 | 0.0 | 0.00 | 0.00 | 0.00 | 99 | 4096.2 |
| 20260508113052 | 36 | 217 | 0.0 | 0.0 | 0.00 | 0.00 | 0.00 | 99 | 4095.9 |
| 20260508112548 | 35 | 217 | 0.0 | 0.0 | 0.00 | 0.00 | 0.00 | 99 | 4095.9 |
| 20260508112045 | 35 | 217 | 0.0 | 0.0 | 0.00 | 0.00 | 0.00 | 99 | 4095.9 |
| 20260508111542 | 34 | 217 | 0.0 | 0.0 | 0.00 | 0.00 | 0.00 | 99 | 4095.9 |
| 20260508111039 | 34 | 217 | 0.0 | 0.0 | 0.00 | 0.00 | 0.00 | 99 | 4095.9 |
| 20260508110537 | 33 | 217 | 0.0 | 0.0 | 0.00 | 0.00 | 0.00 | 99 | 4095.9 |
| 20260508110032 | 33 | 217 | 0.0 | 0.0 | 0.00 | 0.00 | 0.00 | 99 | 4095.9 |
| 20260508105527 | 33 | 217 | 0.0 | 0.0 | 0.00 | 0.00 | 0.00 | 99 | 4095.9 |
| 20260508105025 | 33 | 217 | 0.0 | 0.0 | 0.00 | 0.00 | 0.00 | 99 | 4095.9 |
| 20260508104523 | 32 | 216 | 1.0 | 1.0 | 0.00 | 0.00 | 0.00 | 99 | 4095.9 |
| 20260508104019 | 32 | 216 | 0.0 | 0.0 | 0.00 | 0.00 | 0.00 | 99 | 4095.9 |
| 20260508103516 | 32 | 217 | 1.0 | 1.0 | 0.00 | 0.00 | 0.00 | 99 | 4095.9 |
| 20260508103013 | 32 | 217 | 1.0 | 1.0 | 0.00 | 0.00 | 0.00 | 99 | 4095.9 |
| 20260508102511 | 32 | 217 | 0.0 | 0.0 | 0.00 | 0.00 | 0.00 | 99 | 4095.9 |
| 20260508102009 | 32 | 217 | 1.0 | 1.0 | 0.00 | 0.00 | 0.00 | 99 | 4095.9 |
| 20260508101506 | 32 | 217 | 1.0 | 1.0 | 0.00 | 0.00 | 0.00 | 99 | 4095.9 |
| 20260508101003 | 32 | 217 | 0.0 | 0.0 | 0.00 | 0.00 | 0.00 | 99 | 4095.9 |
| 20260508100501 | 33 | 217 | 0.0 | 1.0 | 0.00 | 0.00 | 0.00 | 99 | 4095.9 |
| 20260508095957 | 34 | 217 | 0.0 | 0.0 | 0.00 | 0.00 | 0.00 | 98 | 4095.9 |
| 20260508095455 | 34 | 216 | 0.0 | 0.0 | 0.00 | 0.00 | 0.00 | 97 | 4095.9 |
| 20260508094951 | 35 | 217 | 0.0 | 0.0 | 0.00 | 0.00 | 0.00 | 96 | 4095.9 |
| 20260508094448 | 37 | 218 | 1.0 | 1.0 | 0.00 | 0.00 | 0.00 | 93 | 4095.9 |
| 20260508093945 | 38 | 218 | 4.0 | 5.0 | 0.00 | 0.00 | 0.00 | 94 | 4095.9 |
| 20260508093442 | 38 | 235 | 5.0 | 5.0 | 0.00 | 0.00 | 0.00 | 95 | 4095.9 |
| 20260508092940 | 38 | 229 | 5.0 | 6.0 | 0.00 | 0.00 | 0.00 | 94 | 4095.9 |
| 20260508092438 | 38 | 234 | 4.0 | 5.0 | 0.00 | 0.00 | 0.00 | 95 | 4095.9 |
| 20260508091936 | 37 | 233 | 5.0 | 6.0 | 0.00 | 0.00 | 0.00 | 96 | 4095.5 |
| 20260508091432 | 37 | 233 | 3.0 | 3.0 | 0.00 | 0.00 | 0.00 | 96 | 4095.9 |
| 20260508090930 | 38 | 246 | 5.0 | 6.0 | 0.00 | 0.00 | 0.00 | 95 | 4095.9 |
| 20260508090429 | 38 | 228 | 5.0 | 6.0 | 0.00 | 0.00 | 0.00 | 95 | 4095.9 |
| 20260508085923 | 38 | 236 | 8.0 | 8.0 | 0.00 | 0.00 | 0.00 | 95 | 4095.9 |
| 20260508085421 | 38 | 234 | 8.0 | 8.0 | 0.00 | 0.00 | 0.00 | 94 | 4096.2 |
| 20260508084917 | 38 | 233 | 6.0 | 7.0 | 0.00 | 0.00 | 0.00 | 94 | 4095.9 |
| 20260508084414 | 38 | 245 | 7.0 | 8.0 | 0.00 | 0.00 | 0.00 | 94 | 4096.2 |
| 20260508083912 | 38 | 240 | 7.0 | 8.0 | 0.00 | 0.00 | 0.00 | 93 | 4095.9 |
| 20260508083409 | 38 | 238 | 8.0 | 9.0 | 0.00 | 0.00 | 0.00 | 93 | 4095.9 |
| 20260508082908 | 39 | 242 | 8.0 | 9.0 | 0.00 | 0.00 | 0.00 | 91 | 4095.9 |
| 20260508082406 | 39 | 241 | 7.0 | 8.0 | 0.00 | 0.00 | 0.00 | 92 | 4096.2 |
| 20260508081904 | 39 | 228 | 7.0 | 8.0 | 0.00 | 0.00 | 0.00 | 91 | 4095.9 |
| 20260508081401 | 39 | 217 | 6.0 | 7.0 | 0.00 | 0.00 | 0.00 | 91 | 4095.9 |
| 20260508080857 | 39 | 230 | 6.0 | 7.0 | 0.00 | 0.00 | 0.00 | 90 | 4095.9 |
| 20260508080355 | 39 | 213 | 7.0 | 8.0 | 0.00 | 0.00 | 0.00 | 91 | 4095.9 |
| 20260508075851 | 39 | 217 | 6.0 | 7.0 | 0.00 | 0.00 | 0.00 | 90 | 4095.9 |
| 20260508075348 | 39 | 220 | 5.0 | 5.0 | 0.00 | 0.00 | 0.00 | 92 | 4096.2 |
| 20260508074847 | 39 | 220 | 5.0 | 6.0 | 0.00 | 0.00 | 0.00 | 92 | 4096.2 |
| 20260508074343 | 38 | 205 | 5.0 | 5.0 | 0.00 | 0.00 | 0.00 | 93 | 4095.9 |
| 20260508073840 | 38 | 171 | 5.0 | 6.0 | 0.00 | 0.00 | 0.00 | 93 | 4096.2 |
| 20260508073338 | 39 | 188 | 4.0 | 5.0 | 0.00 | 0.00 | 0.00 | 91 | 4095.9 |
| 20260508072835 | 37 | 202 | 6.0 | 7.0 | 0.00 | 0.00 | 0.00 | 91 | 4096.2 |
| 20260508072331 | 33 | 198 | 5.0 | 5.0 | 0.00 | 0.00 | 0.00 | 99 | 4095.9 |
| 20260508071828 | 34 | 176 | 0.0 | 1.0 | 0.00 | 0.00 | 0.00 | 99 | 4095.9 |
| 20260508071327 | 33 | 213 | 1.0 | 1.0 | 0.00 | 0.00 | 0.00 | 99 | 4095.9 |
| 20260508070824 | 33 | 214 | 0.0 | 0.0 | 0.00 | 0.00 | 0.00 | 99 | 4096.2 |
| 20260508070322 | 33 | 214 | 0.0 | 0.0 | 0.00 | 0.00 | 0.00 | 99 | 4096.2 |
| 20260508065819 | 33 | 214 | 0.0 | 0.0 | 0.00 | 0.00 | 0.00 | 99 | 4096.5 |
| 20260508065317 | 33 | 214 | 0.0 | 0.0 | 0.00 | 0.00 | 0.00 | 99 | 4096.5 |
| 20260508064815 | 33 | 214 | 0.0 | 0.0 | 0.00 | 0.00 | 0.00 | 99 | 4096.5 |
| 20260508064312 | 33 | 214 | 0.0 | 0.0 | 0.00 | 0.00 | 0.00 | 99 | 4097.0 |
| 20260508063809 | 33 | 214 | 0.0 | 0.0 | 0.00 | 0.00 | 0.00 | 99 | 4097.0 |
| 20260508063308 | 33 | 214 | 0.0 | 0.0 | 0.00 | 0.00 | 0.00 | 99 | 4097.0 |
| 20260508062804 | 33 | 215 | 0.0 | 0.0 | 0.00 | 0.00 | 0.00 | 99 | 4096.5 |
| 20260508062305 | 34 | 216 | 0.0 | 0.0 | 0.00 | 0.00 | 0.00 | 99 | 4097.0 |
| 20260508061758 | 34 | 210 | 0.0 | 0.0 | 0.00 | 0.00 | 0.00 | 99 | 4097.0 |
| 20260508061256 | 33 | 213 | 0.0 | 0.0 | 0.00 | 0.00 | 0.00 | 99 | 4097.3 |
| 20260508060752 | 33 | 212 | 0.0 | 0.0 | 0.00 | 0.00 | 0.00 | 99 | 4097.3 |
| 20260508060251 | 33 | 212 | 0.0 | 0.0 | 0.00 | 0.00 | 0.00 | 99 | 4097.3 |
| 20260508055745 | 33 | 213 | 1.0 | 1.0 | 0.00 | 0.00 | 0.00 | 99 | 4097.3 |
| 20260508055243 | 34 | 213 | 0.0 | 0.0 | 0.00 | 0.00 | 0.00 | 99 | 4097.3 |
| 20260508054739 | 34 | 212 | 0.0 | 0.0 | 0.00 | 0.00 | 0.00 | 99 | 4097.3 |
| 20260508054237 | 34 | 212 | 0.0 | 0.0 | 0.00 | 0.00 | 0.00 | 99 | 4097.3 |
| 20260508053734 | 34 | 212 | 0.0 | 0.0 | 0.00 | 0.00 | 0.00 | 99 | 4097.3 |
| 20260508053231 | 34 | 212 | 0.0 | 0.0 | 0.00 | 0.00 | 0.00 | 99 | 4097.0 |
| 20260508052728 | 34 | 212 | 0.0 | 0.0 | 0.00 | 0.00 | 0.00 | 99 | 4097.3 |
| 20260508052225 | 33 | 212 | 0.0 | 0.0 | 0.00 | 0.00 | 0.00 | 99 | 4097.3 |
| 20260508051722 | 33 | 212 | 0.0 | 0.0 | 0.00 | 0.00 | 0.00 | 99 | 4097.3 |
| 20260508051217 | 33 | 212 | 0.0 | 0.0 | 0.00 | 0.00 | 0.00 | 99 | 4097.3 |
| 20260508050714 | 33 | 212 | 0.0 | 0.0 | 0.00 | 0.00 | 0.00 | 99 | 4097.3 |
| 20260508050212 | 33 | 212 | 0.0 | 0.0 | 0.00 | 0.00 | 0.00 | 99 | 4097.7 |
| 20260508045706 | 33 | 213 | 0.0 | 0.0 | 0.00 | 0.00 | 0.00 | 99 | 4097.7 |
| 20260508045204 | 34 | 213 | 0.0 | 0.0 | 0.00 | 0.00 | 0.00 | 99 | 4097.7 |
| 20260508044702 | 34 | 212 | 0.0 | 0.0 | 0.00 | 0.00 | 0.00 | 99 | 4097.7 |
| 20260508044158 | 34 | 212 | 0.0 | 0.0 | 0.00 | 0.00 | 0.00 | 99 | 4097.7 |
| 20260508043654 | 34 | 212 | 0.0 | 0.0 | 0.00 | 0.00 | 0.00 | 99 | 4097.7 |
| 20260508043152 | 34 | 212 | 0.0 | 0.0 | 0.00 | 0.00 | 0.00 | 99 | 4097.7 |
| 20260508042648 | 35 | 213 | 0.0 | 0.0 | 0.00 | 0.00 | 0.00 | 99 | 4097.7 |
| 20260508042146 | 35 | 213 | 0.0 | 0.0 | 0.00 | 0.00 | 0.00 | 99 | 4097.3 |
| 20260508041642 | 34 | 212 | 0.0 | 0.0 | 0.00 | 0.00 | 0.00 | 99 | 4097.3 |
| 20260508041139 | 34 | 213 | 0.0 | 0.0 | 0.00 | 0.00 | 0.00 | 99 | 4097.7 |
| 20260508040635 | 35 | 213 | 0.0 | 0.0 | 0.00 | 0.00 | 0.00 | 99 | 4097.3 |
| 20260508040133 | 35 | 213 | 0.0 | 0.0 | 0.00 | 0.00 | 0.00 | 99 | 4097.7 |
| 20260508035630 | 35 | 213 | 0.0 | 0.0 | 0.00 | 0.00 | 0.00 | 99 | 4097.3 |
| 20260508035127 | 34 | 213 | 0.0 | 0.0 | 0.00 | 0.00 | 0.00 | 99 | 4097.3 |
| 20260508034624 | 35 | 213 | 0.0 | 0.0 | 0.00 | 0.00 | 0.00 | 99 | 4097.3 |
| 20260508034121 | 35 | 213 | 0.0 | 0.0 | 0.00 | 0.00 | 0.00 | 99 | 4097.7 |
| 20260508033618 | 35 | 213 | 1.0 | 1.0 | 0.00 | 0.00 | 0.00 | 99 | 4097.7 |
| 20260508033117 | 35 | 213 | 0.0 | 1.0 | 0.00 | 0.00 | 0.00 | 99 | 4097.3 |
| 20260508032613 | 35 | 213 | 1.0 | 1.0 | 0.00 | 0.00 | 0.00 | 99 | 4097.3 |
| 20260508032111 | 35 | 213 | 0.0 | 0.0 | 0.00 | 0.00 | 0.00 | 99 | 4097.7 |
| 20260508031608 | 36 | 213 | 0.0 | 0.0 | 0.00 | 0.00 | 0.00 | 99 | 4097.3 |
| 20260508031103 | 36 | 213 | 0.0 | 0.0 | 0.00 | 0.00 | 0.00 | 99 | 4097.3 |
| 20260508030600 | 36 | 213 | 1.0 | 1.0 | 0.00 | 0.00 | 0.00 | 99 | 4097.3 |
| 20260508030058 | 37 | 213 | 0.0 | 1.0 | 0.00 | 0.00 | 0.00 | 98 | 4097.3 |
| 20260508025554 | 37 | 213 | 0.0 | 1.0 | 0.00 | 0.00 | 0.00 | 98 | 4097.3 |
| 20260508025051 | 37 | 213 | 0.0 | 0.0 | 0.00 | 0.00 | 0.00 | 97 | 4097.3 |
| 20260508024547 | 38 | 213 | 0.0 | 0.0 | 0.00 | 0.00 | 0.00 | 96 | 4097.3 |
| 20260508024044 | 39 | 213 | 0.0 | 0.0 | 0.00 | 0.00 | 0.00 | 96 | 4097.3 |
| 20260508023540 | 39 | 213 | 0.0 | 0.0 | 0.00 | 0.00 | 0.00 | 96 | 4097.3 |
| 20260508023038 | 39 | 213 | 0.0 | 0.0 | 0.00 | 0.00 | 0.00 | 96 | 4097.7 |
| 20260508022534 | 39 | 213 | 0.0 | 0.0 | 0.00 | 0.00 | 0.00 | 96 | 4097.3 |
| 20260508022031 | 39 | 213 | 0.0 | 0.0 | 0.00 | 0.00 | 0.00 | 96 | 4097.3 |
| 20260508021527 | 39 | 213 | 0.0 | 0.0 | 0.00 | 0.00 | 0.00 | 96 | 4097.3 |
| 20260508021022 | 39 | 213 | 0.0 | 0.0 | 0.00 | 0.00 | 0.00 | 96 | 4097.3 |
| 20260508020521 | 40 | 213 | 0.0 | 0.0 | 0.00 | 0.00 | 0.00 | 96 | 4097.7 |
| 20260508020018 | 40 | 213 | 0.0 | 0.0 | 0.00 | 0.00 | 0.00 | 96 | 4097.3 |
| 20260508015515 | 40 | 213 | 0.0 | 0.0 | 0.00 | 0.00 | 0.00 | 97 | 4097.7 |
| 20260508015012 | 40 | 214 | 0.0 | 0.0 | 0.00 | 0.00 | 0.00 | 96 | 4097.3 |
| 20260508014508 | 41 | 216 | 1.0 | 2.0 | 0.00 | 0.00 | 0.00 | 97 | 4097.7 |
| 20260508014005 | 40 | 45 | 0.0 | 0.0 | 0.00 | 0.00 | 0.00 | 95 | 4097.3 |
| 20260508013501 | 41 | 38 | 0.0 | 0.0 | 0.00 | 0.00 | 0.00 | 94 | 4097.7 |
| 20260508012958 | 41 | 38 | 0.0 | 0.0 | 0.00 | 0.00 | 0.00 | 94 | 4097.7 |
| 20260508012455 | 41 | 38 | 0.0 | 0.0 | 0.00 | 0.00 | 0.00 | 93 | 4097.7 |
| 20260508011953 | 41 | 38 | 1.0 | 1.0 | 0.00 | 0.00 | 0.00 | 92 | 4097.7 |
| 20260508011451 | 41 | 37 | 0.0 | 0.0 | 0.00 | 0.00 | 0.00 | 91 | 4097.7 |
| 20260508010948 | 41 | 37 | 0.0 | 1.0 | 0.00 | 0.00 | 0.00 | 90 | 4097.7 |
| 20260508010445 | 41 | 1 | 0.0 | 1.0 | 0.00 | 0.00 | 0.00 | 88 | 4097.3 |
| 20260508005942 | 41 | 319 | 0.0 | 1.0 | 0.00 | 0.00 | 0.00 | 88 | 4097.3 |
| 20260508005438 | 41 | 129 | 1.0 | 2.0 | 0.00 | 0.00 | 0.00 | 88 | 4097.3 |
| 20260508004935 | 42 | 103 | 2.0 | 3.0 | 0.00 | 0.00 | 0.00 | 85 | 4097.3 |
| 20260508004431 | 42 | 31 | 0.0 | 1.0 | 0.00 | 0.00 | 0.00 | 82 | 4097.3 |
| 20260508003928 | 42 | 31 | 0.0 | 0.0 | 0.00 | 0.00 | 0.00 | 83 | 4097.3 |
| 20260508003425 | 42 | 31 | 0.0 | 0.0 | 0.00 | 0.00 | 0.00 | 83 | 4097.0 |
| 20260508002922 | 42 | 31 | 0.0 | 0.0 | 0.00 | 0.00 | 0.00 | 83 | 4097.0 |
| 20260508002419 | 42 | 31 | 0.0 | 0.0 | 0.00 | 0.00 | 0.00 | 84 | 4097.0 |
| 20260508001915 | 42 | 31 | 0.0 | 0.0 | 0.00 | 0.00 | 0.00 | 83 | 4097.0 |
| 20260508001411 | 43 | 31 | 0.0 | 0.0 | 0.00 | 0.00 | 0.00 | 83 | 4097.0 |
| 20260508000908 | 43 | 31 | 0.0 | 0.0 | 0.00 | 0.00 | 0.00 | 83 | 4097.0 |
| 20260508000405 | 43 | 31 | 0.0 | 0.0 | 0.00 | 0.00 | 0.00 | 82 | 4097.0 |
| 20260507235901 | 43 | 31 | 0.0 | 0.0 | 0.00 | 0.00 | 0.00 | 82 | 4097.0 |
| 20260507235358 | 43 | 31 | 0.0 | 0.0 | 0.00 | 0.00 | 0.00 | 82 | 4096.5 |
| 20260507234855 | 43 | 31 | 0.0 | 0.0 | 0.00 | 0.00 | 0.00 | 82 | 4097.0 |
| 20260507234351 | 43 | 31 | 0.0 | 0.0 | 0.00 | 0.00 | 0.00 | 82 | 4096.5 |
| 20260507233848 | 43 | 31 | 0.0 | 0.0 | 0.00 | 0.00 | 0.00 | 82 | 4096.5 |
| 20260507233345 | 43 | 31 | 0.0 | 0.0 | 0.00 | 0.00 | 0.00 | 81 | 4096.5 |
| 20260507232843 | 43 | 31 | 0.0 | 0.0 | 0.00 | 0.00 | 0.00 | 81 | 4096.5 |
| 20260507232339 | 44 | 30 | 0.0 | 0.0 | 0.00 | 0.00 | 0.00 | 81 | 4096.5 |
| 20260507231837 | 44 | 35 | 0.0 | 0.0 | 0.00 | 0.00 | 0.00 | 81 | 4096.5 |
| 20260507231334 | 44 | 36 | 0.0 | 0.0 | 0.00 | 0.00 | 0.00 | 81 | 4097.0 |
| 20260507230830 | 44 | 36 | 0.0 | 0.0 | 0.00 | 0.00 | 0.00 | 80 | 4097.0 |
| 20260507230327 | 44 | 36 | 0.0 | 0.0 | 0.00 | 0.00 | 0.00 | 80 | 4097.0 |
| 20260507225827 | 44 | 36 | 0.0 | 0.0 | 0.00 | 0.00 | 0.00 | 80 | 4097.0 |
| 20260507225323 | 44 | 36 | 0.0 | 0.0 | 0.00 | 0.00 | 0.00 | 79 | 4097.0 |
| 20260507224820 | 44 | 36 | 0.0 | 0.0 | 0.00 | 0.00 | 0.00 | 79 | 4097.0 |
| 20260507224316 | 44 | 36 | 0.0 | 0.0 | 0.00 | 0.00 | 0.00 | 80 | 4097.0 |
| 20260507223812 | 44 | 36 | 0.0 | 0.0 | 0.00 | 0.00 | 0.00 | 79 | 4097.0 |
| 20260507223309 | 45 | 36 | 0.0 | 0.0 | 0.00 | 0.00 | 0.00 | 80 | 4097.0 |
| 20260507222806 | 45 | 36 | 0.0 | 0.0 | 0.00 | 0.00 | 0.00 | 78 | 4097.0 |
| 20260507222305 | 45 | 36 | 0.0 | 0.0 | 0.00 | 0.00 | 0.00 | 77 | 4097.0 |
| 20260507221800 | 45 | 36 | 0.0 | 0.0 | 0.00 | 0.00 | 0.00 | 77 | 4097.0 |
| 20260507221256 | 45 | 32 | 0.0 | 0.0 | 0.00 | 0.00 | 0.00 | 77 | 4097.0 |
| 20260507220752 | 45 | 32 | 1.0 | 1.0 | 0.00 | 0.00 | 0.00 | 76 | 4097.0 |
| 20260507220251 | 45 | 20 | 0.0 | 1.0 | 0.00 | 0.00 | 0.00 | 76 | 4097.0 |
| 20260507215746 | 45 | 26 | 0.0 | 0.0 | 0.00 | 0.00 | 0.00 | 76 | 4097.0 |
| 20260507215244 | 45 | 10 | 1.0 | 2.0 | 0.00 | 0.00 | 0.00 | 75 | 4097.0 |
| 20260507214741 | 45 | 18 | 1.0 | 1.0 | 0.00 | 0.00 | 0.00 | 75 | 4097.3 |
| 20260507214238 | 45 | 27 | 0.0 | 0.0 | 0.00 | 0.00 | 0.00 | 74 | 4097.0 |
| 20260507213733 | 45 | 28 | 0.0 | 0.0 | 0.00 | 0.00 | 0.00 | 74 | 4097.0 |
| 20260507213231 | 45 | 24 | 1.0 | 2.0 | 0.00 | 0.00 | 0.00 | 74 | 4097.0 |
| 20260507212726 | 45 | 1 | 1.0 | 2.0 | 0.00 | 0.00 | 0.00 | 74 | 4097.0 |
| 20260507212223 | 45 | 3 | 0.0 | 0.0 | 0.00 | 0.00 | 0.00 | 73 | 4097.0 |
| 20260507211720 | 46 | 3 | 0.0 | 0.0 | 0.00 | 0.00 | 0.00 | 74 | 4097.0 |
| 20260507211216 | 46 | 348 | 1.0 | 1.0 | 0.00 | 0.00 | 0.00 | 73 | 4097.0 |
| 20260507210714 | 47 | 13 | 0.0 | 0.0 | 0.00 | 0.00 | 0.00 | 77 | 4097.0 |
| 20260507210210 | 47 | 14 | 0.0 | 0.0 | 0.00 | 0.00 | 0.00 | 74 | 4096.5 |
| 20260507205707 | 47 | 14 | 1.0 | 1.0 | 0.00 | 0.00 | 0.00 | 72 | 4097.0 |
| 20260507205203 | 47 | 12 | 1.0 | 2.0 | 0.00 | 0.00 | 0.00 | 73 | 4097.0 |
| 20260507204659 | 47 | 56 | 1.0 | 2.0 | 0.00 | 0.00 | 0.00 | 72 | 4096.5 |
| 20260507204158 | 47 | 32 | 1.0 | 1.0 | 0.00 | 0.00 | 0.00 | 73 | 4097.0 |
| 20260507203655 | 47 | 15 | 1.0 | 1.0 | 0.00 | 0.00 | 0.00 | 71 | 4097.0 |
| 20260507203153 | 47 | 65 | 0.0 | 1.0 | 0.00 | 0.00 | 0.00 | 71 | 4097.0 |
| 20260507202648 | 47 | 65 | 0.0 | 0.0 | 0.00 | 0.00 | 0.00 | 72 | 4097.0 |
| 20260507202144 | 47 | 34 | 0.0 | 0.0 | 0.00 | 0.00 | 0.00 | 71 | 4096.5 |
| 20260507201639 | 47 | 78 | 1.0 | 1.0 | 0.00 | 0.00 | 0.00 | 71 | 4097.0 |
| 20260507201137 | 47 | 68 | 1.0 | 1.0 | 0.00 | 0.00 | 0.00 | 71 | 4096.5 |
| 20260507200633 | 47 | 68 | 0.0 | 1.0 | 0.00 | 0.00 | 0.00 | 73 | 4097.0 |
| 20260507200129 | 47 | 53 | 1.0 | 1.0 | 0.00 | 0.00 | 0.00 | 72 | 4097.0 |
| 20260507195626 | 47 | 78 | 1.0 | 2.0 | 0.00 | 0.00 | 0.00 | 73 | 4097.0 |
| 20260507195123 | 47 | 63 | 0.0 | 1.0 | 0.00 | 0.00 | 0.00 | 73 | 4097.0 |
| 20260507194620 | 46 | 19 | 2.0 | 2.0 | 0.00 | 0.00 | 0.00 | 73 | 4097.0 |
| 20260507194115 | 47 | 3 | 0.0 | 0.0 | 0.00 | 0.00 | 0.00 | 74 | 4097.0 |
| 20260507193612 | 47 | 335 | 0.0 | 1.0 | 0.00 | 0.00 | 0.00 | 74 | 4097.0 |
| 20260507193109 | 46 | 305 | 0.0 | 1.0 | 0.00 | 0.00 | 0.00 | 74 | 4097.0 |
| 20260507192606 | 46 | 37 | 1.0 | 2.0 | 0.00 | 0.00 | 0.00 | 73 | 4097.0 |
| 20260507192103 | 46 | 64 | 0.0 | 1.0 | 0.00 | 0.00 | 0.00 | 74 | 4097.0 |
| 20260507191558 | 46 | 36 | 1.0 | 1.0 | 0.00 | 0.00 | 0.00 | 76 | 4097.0 |
| 20260507191055 | 45 | 327 | 0.0 | 1.0 | 0.00 | 0.00 | 0.00 | 77 | 4097.3 |
| 20260507190552 | 45 | 331 | 3.0 | 3.0 | 0.00 | 0.00 | 0.00 | 75 | 4097.3 |
| 20260507190051 | 46 | 92 | 1.0 | 2.0 | 0.00 | 0.00 | 0.00 | 80 | 4097.0 |
| 20260507185549 | 46 | 143 | 1.0 | 1.0 | 0.00 | 0.00 | 0.00 | 79 | 4097.3 |
| 20260507185045 | 47 | 93 | 1.0 | 3.0 | 0.00 | 0.00 | 0.00 | 76 | 4097.3 |
| 20260507184544 | 47 | 346 | 0.0 | 0.0 | 0.00 | 0.00 | 0.00 | 75 | 4097.3 |
| 20260507184041 | 48 | 81 | 0.0 | 1.0 | 0.00 | 0.00 | 0.00 | 76 | 4097.3 |
| 20260507183537 | 49 | 303 | 3.0 | 3.0 | 0.00 | 0.00 | 0.00 | 71 | 4097.3 |
| 20260507183034 | 48 | 210 | 1.0 | 1.0 | 0.00 | 0.00 | 0.00 | 75 | 4097.3 |
| 20260507182530 | 48 | 224 | 2.0 | 2.0 | 0.00 | 0.00 | 0.00 | 73 | 4097.7 |
| 20260507182026 | 50 | 70 | 1.0 | 2.0 | 0.00 | 0.00 | 0.00 | 70 | 4097.7 |
| 20260507181524 | 51 | 181 | 1.0 | 2.0 | 0.00 | 0.00 | 0.00 | 71 | 4097.3 |
| 20260507181020 | 50 | 204 | 0.0 | 1.0 | 0.00 | 0.00 | 0.00 | 71 | 4097.7 |
| 20260507180516 | 50 | 143 | 0.0 | 1.0 | 0.00 | 0.00 | 0.00 | 73 | 4097.7 |
| 20260507180013 | 49 | 218 | 0.0 | 0.0 | 0.00 | 0.00 | 0.00 | 73 | 4097.7 |
| 20260507175509 | 48 | 69 | 0.0 | 0.0 | 0.00 | 0.00 | 0.00 | 74 | 4097.7 |
| 20260507175007 | 48 | 89 | 0.0 | 1.0 | 0.00 | 0.00 | 0.00 | 75 | 4097.7 |
| 20260507174504 | 48 | 122 | 0.0 | 1.0 | 0.00 | 0.00 | 0.00 | 76 | 4098.0 |
| 20260507174002 | 47 | 104 | 1.0 | 1.0 | 0.00 | 0.00 | 0.00 | 75 | 4098.0 |
| 20260507173458 | 46 | 107 | 0.0 | 0.0 | 0.00 | 0.00 | 0.00 | 77 | 4098.0 |
| 20260507172955 | 47 | 158 | 1.0 | 1.0 | 0.00 | 0.00 | 0.00 | 75 | 4097.7 |
| 20260507172451 | 48 | 220 | 0.0 | 0.0 | 0.00 | 0.00 | 0.00 | 74 | 4098.0 |
| 20260507171948 | 48 | 148 | 0.0 | 0.0 | 0.00 | 0.00 | 0.00 | 74 | 4098.0 |
| 20260507171444 | 48 | 160 | 0.0 | 0.0 | 0.00 | 0.00 | 0.00 | 76 | 4098.0 |
| 20260507170941 | 47 | 189 | 0.0 | 0.0 | 0.00 | 0.00 | 0.00 | 78 | 4098.3 |
| 20260507170438 | 47 | 123 | 0.0 | 0.0 | 0.00 | 0.00 | 0.00 | 78 | 4098.0 |
| 20260507165934 | 46 | 123 | 0.0 | 0.0 | 0.00 | 0.00 | 0.00 | 76 | 4098.3 |
| 20260507165431 | 47 | 124 | 1.0 | 1.0 | 0.00 | 0.00 | 0.00 | 76 | 4098.3 |
| 20260507164926 | 47 | 131 | 0.0 | 0.0 | 0.00 | 0.00 | 0.00 | 77 | 4098.3 |
| 20260507164423 | 46 | 131 | 0.0 | 0.0 | 0.00 | 0.00 | 0.00 | 77 | 4098.7 |
| 20260507163920 | 47 | 136 | 0.0 | 0.0 | 0.00 | 0.00 | 0.00 | 78 | 4098.7 |
| 20260507163418 | 47 | 156 | 0.0 | 0.0 | 0.00 | 0.00 | 0.00 | 78 | 4098.7 |
| 20260507162914 | 46 | 156 | 0.0 | 0.0 | 0.00 | 0.00 | 0.00 | 79 | 4098.7 |
| 20260507162410 | 45 | 159 | 0.0 | 0.0 | 0.00 | 0.00 | 0.00 | 80 | 4098.7 |
| 20260507161908 | 45 | 246 | 0.0 | 1.0 | 0.00 | 0.00 | 0.00 | 78 | 4098.7 |
| 20260507161403 | 44 | 238 | 0.0 | 1.0 | 0.00 | 0.00 | 0.00 | 80 | 4098.7 |
| 20260507160900 | 44 | 238 | 0.0 | 1.0 | 0.00 | 0.00 | 0.00 | 82 | 4098.7 |
| 20260507160356 | 44 | 247 | 0.0 | 1.0 | 0.00 | 0.00 | 0.00 | 80 | 4098.7 |
| 20260507155852 | 44 | 253 | 1.0 | 1.0 | 0.00 | 0.00 | 0.00 | 80 | 4098.7 |
| 20260507155348 | 44 | 241 | 1.0 | 1.0 | 0.00 | 0.00 | 0.00 | 80 | 4099.0 |
| 20260507154845 | 44 | 240 | 0.0 | 0.0 | 0.00 | 0.00 | 0.00 | 78 | 4098.7 |
| 20260507154342 | 45 | 239 | 0.0 | 0.0 | 0.00 | 0.00 | 0.00 | 78 | 4098.7 |
| 20260507153839 | 45 | 240 | 1.0 | 1.0 | 0.00 | 0.00 | 0.00 | 78 | 4098.7 |
| 20260507153336 | 45 | 237 | 0.0 | 0.0 | 0.00 | 0.00 | 0.00 | 79 | 4099.0 |
| 20260507152832 | 45 | 237 | 0.0 | 0.0 | 0.00 | 0.00 | 0.00 | 80 | 4098.7 |
| 20260507152329 | 45 | 235 | 0.0 | 0.0 | 0.00 | 0.00 | 0.00 | 81 | 4098.7 |
| 20260507151825 | 45 | 236 | 0.0 | 0.0 | 0.00 | 0.00 | 0.00 | 81 | 4098.7 |
| 20260507151321 | 45 | 236 | 0.0 | 1.0 | 0.00 | 0.00 | 0.00 | 80 | 4099.0 |
| 20260507150818 | 44 | 236 | 0.0 | 0.0 | 0.00 | 0.00 | 0.00 | 82 | 4099.0 |
| 20260507150315 | 44 | 237 | 0.0 | 1.0 | 0.00 | 0.00 | 0.00 | 83 | 4098.7 |
| 20260507145811 | 43 | 237 | 0.0 | 0.0 | 0.00 | 0.00 | 0.00 | 83 | 4098.7 |
| 20260507145308 | 43 | 238 | 0.0 | 0.0 | 0.00 | 0.00 | 0.00 | 84 | 4098.7 |
| 20260507144805 | 43 | 229 | 0.0 | 0.0 | 0.00 | 0.00 | 0.00 | 84 | 4098.7 |
| 20260507144302 | 42 | 229 | 0.0 | 0.0 | 0.00 | 0.00 | 0.00 | 83 | 4098.7 |
| 20260507143758 | 42 | 229 | 0.0 | 0.0 | 0.00 | 0.00 | 0.00 | 86 | 4098.7 |
| 20260507143256 | 41 | 229 | 0.0 | 0.0 | 0.00 | 0.00 | 0.00 | 86 | 4098.7 |
| 20260507142751 | 41 | 230 | 1.0 | 1.0 | 0.00 | 0.00 | 0.00 | 86 | 4099.0 |
| 20260507142248 | 41 | 229 | 1.0 | 1.0 | 0.00 | 0.00 | 0.00 | 86 | 4098.7 |
| 20260507141745 | 41 | 230 | 1.0 | 2.0 | 0.00 | 0.00 | 0.00 | 86 | 4098.7 |
| 20260507141242 | 41 | 232 | 3.0 | 3.0 | 0.00 | 0.00 | 0.00 | 86 | 4099.0 |
| 20260507140738 | 41 | 233 | 2.0 | 2.0 | 0.00 | 0.00 | 0.00 | 85 | 4099.0 |
| 20260507140236 | 41 | 233 | 2.0 | 2.0 | 0.00 | 0.00 | 0.00 | 85 | 4099.0 |
| 20260507135732 | 40 | 236 | 3.0 | 5.0 | 0.00 | 0.00 | 0.00 | 88 | 4099.0 |
| 20260507135230 | 40 | 239 | 4.0 | 5.0 | 0.00 | 0.00 | 0.00 | 86 | 4099.0 |
| 20260507134726 | 40 | 238 | 5.0 | 5.0 | 0.00 | 0.00 | 0.00 | 87 | 4099.0 |
| 20260507134222 | 40 | 240 | 4.0 | 5.0 | 0.00 | 0.00 | 0.00 | 88 | 4098.7 |
| 20260507133718 | 40 | 246 | 5.0 | 6.0 | 0.00 | 0.00 | 0.00 | 88 | 4099.0 |
| 20260507133215 | 40 | 236 | 4.0 | 5.0 | 0.00 | 0.00 | 0.00 | 89 | 4099.0 |
| 20260507132713 | 40 | 232 | 4.0 | 5.0 | 0.00 | 0.00 | 0.00 | 90 | 4099.0 |
| 20260507132209 | 39 | 233 | 3.0 | 3.0 | 0.00 | 0.00 | 0.00 | 91 | 4098.7 |
| 20260507131706 | 39 | 224 | 3.0 | 3.0 | 0.00 | 0.00 | 0.00 | 90 | 4099.0 |
| 20260507131204 | 39 | 215 | 3.0 | 3.0 | 0.00 | 0.00 | 0.00 | 89 | 4099.0 |
| 20260507130700 | 39 | 222 | 4.0 | 5.0 | 0.00 | 0.00 | 0.00 | 90 | 4099.0 |
| 20260507130158 | 38 | 214 | 5.0 | 5.0 | 0.00 | 0.00 | 0.00 | 90 | 4099.0 |
| 20260507125656 | 38 | 219 | 5.0 | 5.0 | 0.00 | 0.00 | 0.00 | 89 | 4098.7 |
| 20260507125154 | 38 | 220 | 4.0 | 5.0 | 0.00 | 0.00 | 0.00 | 92 | 4098.7 |